SXS34J LTAI-LBSF
Flight info
| Callsign | SXS34J |
|---|---|
| Flight time | 1h 31m |
| Altitude | 36000 |
| Route | EKNUD1F/36R EKNUD UQ26 DIGBO UL615 VADEN T227 DEDIN |
| Aircraft | B38M/M-SDE1FGHILORVWXY/HB1 |
Departure
| Time | 2026-05-04 16:53 |
|---|---|
| Airport | Antalya International Airport (LTAI) |
Arrival
| Time | 2026-05-04 18:25 |
|---|---|
| Airport | Sofia Airport (LBSF) |
| Time | Latitude | Longitude | Altitude | Speed | Heading |
|---|---|---|---|---|---|
| 2026-05-04 16:24 | 36.89015 | 30.79834 | 205 ft | 0 kts | 276° |
| 2026-05-04 16:29 | 36.89015 | 30.79835 | 205 ft | 0 kts | 276° |
| 2026-05-04 16:35 | 36.89015 | 30.79836 | 205 ft | 0 kts | 276° |
| 2026-05-04 16:41 | 36.89014 | 30.79847 | 210 ft | 4 kts | 270° |
| 2026-05-04 16:42 | 36.89060 | 30.79897 | 205 ft | 0 kts | 186° |
| 2026-05-04 16:43 | 36.89061 | 30.79897 | 205 ft | 0 kts | 186° |
| 2026-05-04 16:44 | 36.89061 | 30.79898 | 205 ft | 0 kts | 186° |
| 2026-05-04 16:45 | 36.89051 | 30.79896 | 203 ft | 3 kts | 187° |
| 2026-05-04 16:46 | 36.88858 | 30.79883 | 203 ft | 7 kts | 134° |
| 2026-05-04 16:46 | 36.88837 | 30.80068 | 195 ft | 17 kts | 96° |
| 2026-05-04 16:47 | 36.88812 | 30.80348 | 199 ft | 17 kts | 96° |
| 2026-05-04 16:47 | 36.88785 | 30.80568 | 205 ft | 12 kts | 134° |
| 2026-05-04 16:48 | 36.88475 | 30.80541 | 207 ft | 14 kts | 186° |
| 2026-05-04 16:48 | 36.88371 | 30.80527 | 195 ft | 16 kts | 186° |
| 2026-05-04 16:49 | 36.88145 | 30.80496 | 207 ft | 14 kts | 186° |
| 2026-05-04 16:49 | 36.88057 | 30.80541 | 197 ft | 8 kts | 95° |
| 2026-05-04 16:50 | 36.88058 | 30.80598 | 193 ft | 0 kts | 79° |
| 2026-05-04 16:51 | 36.88059 | 30.80601 | 193 ft | 3 kts | 79° |
| 2026-05-04 16:51 | 36.88088 | 30.80670 | 203 ft | 14 kts | 58° |
| 2026-05-04 16:51 | 36.88211 | 30.80742 | 197 ft | 0 kts | 6° |
| 2026-05-04 16:52 | 36.88215 | 30.80742 | 196 ft | 2 kts | 6° |
| 2026-05-04 16:52 | 36.88216 | 30.80742 | 196 ft | 0 kts | 6° |
| 2026-05-04 16:53 | 36.88724 | 30.80811 | 205 ft | 108 kts | 6° |
| 2026-05-04 16:53 | 36.92053 | 30.81448 | 1676 ft | 179 kts | 15° |
| 2026-05-04 16:54 | 36.93232 | 30.82061 | 2500 ft | 193 kts | 16° |
| 2026-05-04 16:55 | 36.98478 | 30.84722 | 6041 ft | 209 kts | 17° |
| 2026-05-04 16:55 | 37.01396 | 30.86141 | 7202 ft | 246 kts | 17° |
| 2026-05-04 16:56 | 37.04757 | 30.87779 | 8721 ft | 264 kts | 18° |
| 2026-05-04 16:56 | 37.10138 | 30.88530 | 9852 ft | 265 kts | 345° |
| 2026-05-04 16:57 | 37.11929 | 30.88000 | 9979 ft | 264 kts | 346° |
| 2026-05-04 16:57 | 37.14968 | 30.87172 | 10513 ft | 272 kts | 347° |
| 2026-05-04 16:58 | 37.20518 | 30.85739 | 12041 ft | 267 kts | 347° |
| 2026-05-04 16:58 | 37.22336 | 30.85279 | 12240 ft | 267 kts | 347° |
| 2026-05-04 16:59 | 37.25965 | 30.84363 | 13865 ft | 269 kts | 347° |
| 2026-05-04 17:00 | 37.33405 | 30.82488 | 16648 ft | 278 kts | 347° |
| 2026-05-04 17:00 | 37.39538 | 30.80933 | 17406 ft | 328 kts | 348° |
| 2026-05-04 17:01 | 37.44272 | 30.80261 | 17883 ft | 357 kts | 2° |
| 2026-05-04 17:01 | 37.49312 | 30.80444 | 18797 ft | 366 kts | 0° |
| 2026-05-04 17:02 | 37.54388 | 30.80659 | 19891 ft | 369 kts | 0° |
| 2026-05-04 17:02 | 37.59556 | 30.80888 | 20838 ft | 374 kts | 0° |
| 2026-05-04 17:03 | 37.62169 | 30.81006 | 21297 ft | 376 kts | 0° |
| 2026-05-04 17:03 | 37.64792 | 30.81124 | 21814 ft | 378 kts | 1° |
| 2026-05-04 17:03 | 37.70106 | 30.81364 | 22741 ft | 384 kts | 0° |
| 2026-05-04 17:04 | 37.75475 | 30.81607 | 23709 ft | 387 kts | 1° |
| 2026-05-04 17:04 | 37.80863 | 30.81670 | 24489 ft | 392 kts | 359° |
| 2026-05-04 17:05 | 37.86356 | 30.81561 | 25287 ft | 397 kts | 359° |
| 2026-05-04 17:05 | 37.91908 | 30.81449 | 26102 ft | 401 kts | 360° |
| 2026-05-04 17:06 | 37.97523 | 30.81336 | 26887 ft | 405 kts | 360° |
| 2026-05-04 17:06 | 38.00353 | 30.81279 | 27256 ft | 407 kts | 359° |
| 2026-05-04 17:07 | 38.06056 | 30.81164 | 27953 ft | 412 kts | 359° |
| 2026-05-04 17:07 | 38.07958 | 30.81125 | 28183 ft | 414 kts | 359° |
| 2026-05-04 17:07 | 38.11783 | 30.81048 | 28651 ft | 417 kts | 0° |
| 2026-05-04 17:07 | 38.14670 | 30.80765 | 29015 ft | 418 kts | 354° |
| 2026-05-04 17:08 | 38.17561 | 30.80267 | 29397 ft | 420 kts | 354° |
| 2026-05-04 17:08 | 38.23397 | 30.79295 | 29989 ft | 425 kts | 354° |
| 2026-05-04 17:08 | 38.26335 | 30.78811 | 30319 ft | 425 kts | 354° |
| 2026-05-04 17:09 | 38.29270 | 30.78328 | 30682 ft | 424 kts | 354° |
| 2026-05-04 17:09 | 38.32200 | 30.77844 | 31035 ft | 424 kts | 353° |
| 2026-05-04 17:09 | 38.35124 | 30.77363 | 31411 ft | 423 kts | 354° |
| 2026-05-04 17:10 | 38.40941 | 30.76400 | 32147 ft | 422 kts | 354° |
| 2026-05-04 17:10 | 38.49630 | 30.74961 | 33145 ft | 421 kts | 353° |
| 2026-05-04 17:11 | 38.52535 | 30.74480 | 33469 ft | 421 kts | 353° |
| 2026-05-04 17:11 | 38.55447 | 30.73996 | 33780 ft | 421 kts | 353° |
| 2026-05-04 17:11 | 38.61261 | 30.73029 | 34325 ft | 422 kts | 353° |
| 2026-05-04 17:12 | 38.64173 | 30.72545 | 34538 ft | 423 kts | 353° |
| 2026-05-04 17:12 | 38.70030 | 30.71569 | 34957 ft | 425 kts | 352° |
| 2026-05-04 17:13 | 38.78880 | 30.70091 | 35544 ft | 430 kts | 352° |
| 2026-05-04 17:14 | 38.87580 | 30.67653 | 35998 ft | 431 kts | 332° |
| 2026-05-04 17:14 | 38.90223 | 30.65824 | 36050 ft | 433 kts | 334° |
| 2026-05-04 17:15 | 38.98247 | 30.60548 | 36050 ft | 432 kts | 334° |
| 2026-05-04 17:16 | 39.08985 | 30.53539 | 36040 ft | 432 kts | 334° |
| 2026-05-04 17:17 | 39.19680 | 30.46533 | 36045 ft | 432 kts | 334° |
| 2026-05-04 17:18 | 39.30425 | 30.39473 | 36043 ft | 433 kts | 335° |
| 2026-05-04 17:19 | 39.41169 | 30.32387 | 36062 ft | 434 kts | 335° |
| 2026-05-04 17:20 | 39.51976 | 30.25552 | 36075 ft | 432 kts | 340° |
| 2026-05-04 17:20 | 39.60335 | 30.21059 | 36046 ft | 433 kts | 340° |
| 2026-05-04 17:21 | 39.71499 | 30.15092 | 36056 ft | 433 kts | 340° |
| 2026-05-04 17:22 | 39.77043 | 30.12118 | 36055 ft | 434 kts | 340° |
| 2026-05-04 17:23 | 39.88206 | 30.06119 | 36072 ft | 434 kts | 340° |
| 2026-05-04 17:24 | 39.96579 | 30.01606 | 36071 ft | 434 kts | 340° |
| 2026-05-04 17:25 | 40.07743 | 29.95569 | 36073 ft | 435 kts | 340° |
| 2026-05-04 17:26 | 40.18929 | 29.89502 | 36053 ft | 435 kts | 341° |
| 2026-05-04 17:27 | 40.32848 | 29.81919 | 36034 ft | 434 kts | 341° |
| 2026-05-04 17:28 | 40.43976 | 29.75833 | 36043 ft | 430 kts | 341° |
| 2026-05-04 17:29 | 40.60537 | 29.66735 | 36041 ft | 431 kts | 341° |
| 2026-05-04 17:30 | 40.68512 | 29.61327 | 36030 ft | 436 kts | 323° |
| 2026-05-04 17:31 | 40.73165 | 29.56276 | 35980 ft | 436 kts | 326° |
| 2026-05-04 17:32 | 40.85042 | 29.43720 | 36046 ft | 437 kts | 326° |
| 2026-05-04 17:33 | 40.94511 | 29.33683 | 36045 ft | 437 kts | 326° |
| 2026-05-04 17:34 | 41.03997 | 29.23589 | 36028 ft | 437 kts | 326° |
| 2026-05-04 17:35 | 41.15038 | 29.09765 | 36116 ft | 444 kts | 307° |
| 2026-05-04 17:35 | 41.16734 | 29.06299 | 35981 ft | 449 kts | 308° |
| 2026-05-04 17:36 | 41.18426 | 29.02891 | 35994 ft | 447 kts | 308° |
| 2026-05-04 17:36 | 41.21876 | 28.95981 | 36024 ft | 449 kts | 308° |
| 2026-05-04 17:37 | 41.25327 | 28.89064 | 36049 ft | 449 kts | 308° |
| 2026-05-04 17:37 | 41.28775 | 28.82139 | 36052 ft | 449 kts | 308° |
| 2026-05-04 17:38 | 41.32220 | 28.75201 | 36046 ft | 449 kts | 308° |
| 2026-05-04 17:38 | 41.35640 | 28.68301 | 36051 ft | 449 kts | 308° |
| 2026-05-04 17:39 | 41.40788 | 28.57884 | 36049 ft | 449 kts | 308° |
| 2026-05-04 17:39 | 41.44211 | 28.50937 | 36047 ft | 449 kts | 308° |
| 2026-05-04 17:40 | 41.47635 | 28.43975 | 36042 ft | 448 kts | 307° |
| 2026-05-04 17:40 | 41.51043 | 28.37028 | 36050 ft | 448 kts | 307° |
| 2026-05-04 17:41 | 41.54437 | 28.30098 | 36053 ft | 448 kts | 307° |
| 2026-05-04 17:41 | 41.57845 | 28.23123 | 36048 ft | 448 kts | 307° |
| 2026-05-04 17:42 | 41.61246 | 28.16144 | 36053 ft | 448 kts | 307° |
| 2026-05-04 17:42 | 41.64643 | 28.09159 | 36052 ft | 448 kts | 307° |
| 2026-05-04 17:43 | 41.68036 | 28.02166 | 36054 ft | 448 kts | 307° |
| 2026-05-04 17:43 | 41.71427 | 27.95162 | 36057 ft | 448 kts | 307° |
| 2026-05-04 17:44 | 41.74238 | 27.89342 | 36057 ft | 448 kts | 307° |
| 2026-05-04 17:44 | 41.78168 | 27.81188 | 36061 ft | 448 kts | 307° |
| 2026-05-04 17:45 | 41.80995 | 27.75308 | 36062 ft | 448 kts | 307° |
| 2026-05-04 17:45 | 41.84349 | 27.68318 | 36058 ft | 448 kts | 306° |
| 2026-05-04 17:46 | 41.87722 | 27.61273 | 36056 ft | 448 kts | 306° |
| 2026-05-04 17:46 | 41.91086 | 27.54227 | 36065 ft | 448 kts | 306° |
| 2026-05-04 17:47 | 41.94445 | 27.47180 | 36059 ft | 448 kts | 306° |
| 2026-05-04 17:47 | 41.97780 | 27.40163 | 36059 ft | 449 kts | 306° |
| 2026-05-04 17:48 | 42.01140 | 27.33078 | 36068 ft | 448 kts | 306° |
| 2026-05-04 17:48 | 42.04494 | 27.25993 | 36059 ft | 448 kts | 306° |
| 2026-05-04 17:49 | 42.07346 | 27.18506 | 36174 ft | 450 kts | 298° |
| 2026-05-04 17:49 | 42.10039 | 27.10931 | 36024 ft | 450 kts | 299° |
| 2026-05-04 17:50 | 42.12041 | 27.02924 | 36114 ft | 454 kts | 285° |
| 2026-05-04 17:50 | 42.13434 | 26.94542 | 36011 ft | 463 kts | 286° |
| 2026-05-04 17:51 | 42.14898 | 26.86064 | 36039 ft | 465 kts | 286° |
| 2026-05-04 17:51 | 42.16365 | 26.77583 | 36039 ft | 464 kts | 286° |
| 2026-05-04 17:52 | 42.17827 | 26.69088 | 36044 ft | 464 kts | 286° |
| 2026-05-04 17:52 | 42.19281 | 26.60606 | 36034 ft | 464 kts | 286° |
| 2026-05-04 17:53 | 42.20717 | 26.52185 | 36032 ft | 461 kts | 285° |
| 2026-05-04 17:53 | 42.22130 | 26.43848 | 36036 ft | 453 kts | 285° |
| 2026-05-04 17:54 | 42.23528 | 26.35572 | 36028 ft | 452 kts | 285° |
| 2026-05-04 17:54 | 42.24921 | 26.27288 | 36024 ft | 452 kts | 285° |
| 2026-05-04 17:55 | 42.26306 | 26.19019 | 36036 ft | 450 kts | 285° |
| 2026-05-04 17:55 | 42.27677 | 26.10780 | 36033 ft | 448 kts | 285° |
| 2026-05-04 17:56 | 42.29034 | 26.02594 | 36039 ft | 449 kts | 285° |
| 2026-05-04 17:56 | 42.30391 | 25.94365 | 36036 ft | 449 kts | 285° |
| 2026-05-04 17:57 | 42.31744 | 25.86128 | 36034 ft | 449 kts | 284° |
| 2026-05-04 17:57 | 42.33090 | 25.77888 | 36035 ft | 449 kts | 284° |
| 2026-05-04 17:58 | 42.34429 | 25.69654 | 36037 ft | 449 kts | 284° |
| 2026-05-04 17:58 | 42.35763 | 25.61412 | 35971 ft | 444 kts | 284° |
| 2026-05-04 17:59 | 42.36415 | 25.57363 | 35460 ft | 440 kts | 284° |
| 2026-05-04 17:59 | 42.37101 | 25.53362 | 35364 ft | 433 kts | 285° |
| 2026-05-04 17:59 | 42.38348 | 25.45372 | 33996 ft | 435 kts | 284° |
| 2026-05-04 18:00 | 42.38976 | 25.41400 | 33048 ft | 441 kts | 284° |
| 2026-05-04 18:00 | 42.39624 | 25.37331 | 32195 ft | 444 kts | 284° |
| 2026-05-04 18:00 | 42.40283 | 25.33184 | 31459 ft | 444 kts | 284° |
| 2026-05-04 18:00 | 42.40925 | 25.29138 | 30829 ft | 448 kts | 283° |
| 2026-05-04 18:01 | 42.41579 | 25.25008 | 30255 ft | 451 kts | 283° |
| 2026-05-04 18:01 | 42.42237 | 25.20851 | 29629 ft | 453 kts | 283° |
| 2026-05-04 18:01 | 42.42899 | 25.16663 | 28973 ft | 455 kts | 283° |
| 2026-05-04 18:02 | 42.44217 | 25.08223 | 27743 ft | 461 kts | 283° |
| 2026-05-04 18:02 | 42.44882 | 25.03967 | 27188 ft | 463 kts | 283° |
| 2026-05-04 18:02 | 42.45549 | 24.99687 | 26632 ft | 466 kts | 283° |
| 2026-05-04 18:02 | 42.46219 | 24.95378 | 26106 ft | 468 kts | 283° |
| 2026-05-04 18:03 | 42.46888 | 24.91061 | 25599 ft | 471 kts | 284° |
| 2026-05-04 18:03 | 42.47559 | 24.86721 | 25109 ft | 470 kts | 284° |
| 2026-05-04 18:03 | 42.48225 | 24.82398 | 24635 ft | 469 kts | 284° |
| 2026-05-04 18:03 | 42.48894 | 24.78047 | 24185 ft | 472 kts | 284° |
| 2026-05-04 18:04 | 42.49563 | 24.73686 | 23819 ft | 474 kts | 284° |
| 2026-05-04 18:04 | 42.50232 | 24.69308 | 23454 ft | 473 kts | 284° |
| 2026-05-04 18:04 | 42.51520 | 24.60842 | 22699 ft | 466 kts | 284° |
| 2026-05-04 18:05 | 42.52170 | 24.56584 | 22276 ft | 456 kts | 284° |
| 2026-05-04 18:05 | 42.52801 | 24.52414 | 21996 ft | 446 kts | 284° |
| 2026-05-04 18:05 | 42.53425 | 24.48285 | 21795 ft | 447 kts | 284° |
| 2026-05-04 18:05 | 42.54048 | 24.44146 | 21578 ft | 448 kts | 284° |
| 2026-05-04 18:06 | 42.55290 | 24.35852 | 21168 ft | 449 kts | 284° |
| 2026-05-04 18:06 | 42.55911 | 24.31696 | 20966 ft | 450 kts | 284° |
| 2026-05-04 18:06 | 42.56528 | 24.27547 | 20672 ft | 448 kts | 284° |
| 2026-05-04 18:07 | 42.57141 | 24.23413 | 20238 ft | 446 kts | 284° |
| 2026-05-04 18:07 | 42.57748 | 24.19316 | 19817 ft | 438 kts | 284° |
| 2026-05-04 18:07 | 42.58347 | 24.15261 | 19381 ft | 440 kts | 284° |
| 2026-05-04 18:07 | 42.58950 | 24.11170 | 18910 ft | 442 kts | 284° |
| 2026-05-04 18:08 | 42.59408 | 24.07045 | 18405 ft | 446 kts | 274° |
| 2026-05-04 18:08 | 42.59216 | 24.02865 | 17985 ft | 439 kts | 268° |
| 2026-05-04 18:08 | 42.58981 | 23.98806 | 17479 ft | 433 kts | 268° |
| 2026-05-04 18:08 | 42.58759 | 23.94730 | 16947 ft | 434 kts | 269° |
| 2026-05-04 18:09 | 42.58480 | 23.86572 | 15979 ft | 427 kts | 278° |
| 2026-05-04 18:09 | 42.59020 | 23.78645 | 15099 ft | 417 kts | 278° |
| 2026-05-04 18:10 | 42.59261 | 23.74775 | 14622 ft | 406 kts | 278° |
| 2026-05-04 18:10 | 42.59496 | 23.71016 | 14194 ft | 395 kts | 278° |
| 2026-05-04 18:10 | 42.59727 | 23.67315 | 13737 ft | 393 kts | 278° |
| 2026-05-04 18:10 | 42.59954 | 23.63667 | 13228 ft | 390 kts | 278° |
| 2026-05-04 18:11 | 42.60175 | 23.60064 | 12705 ft | 377 kts | 278° |
| 2026-05-04 18:11 | 42.60389 | 23.56573 | 12178 ft | 366 kts | 278° |
| 2026-05-04 18:11 | 42.60596 | 23.53183 | 11657 ft | 356 kts | 278° |
| 2026-05-04 18:11 | 42.60794 | 23.49874 | 11140 ft | 347 kts | 278° |
| 2026-05-04 18:12 | 42.60989 | 23.46643 | 10618 ft | 339 kts | 278° |
| 2026-05-04 18:12 | 42.61178 | 23.43493 | 10176 ft | 330 kts | 278° |
| 2026-05-04 18:12 | 42.61359 | 23.40470 | 10106 ft | 310 kts | 278° |
| 2026-05-04 18:12 | 42.61530 | 23.37611 | 10087 ft | 305 kts | 278° |
| 2026-05-04 18:13 | 42.61701 | 23.34747 | 10017 ft | 304 kts | 278° |
| 2026-05-04 18:13 | 42.61870 | 23.31893 | 10004 ft | 303 kts | 278° |
| 2026-05-04 18:13 | 42.62207 | 23.26183 | 9996 ft | 303 kts | 278° |
| 2026-05-04 18:14 | 42.62374 | 23.23329 | 9973 ft | 303 kts | 278° |
| 2026-05-04 18:14 | 42.62541 | 23.20475 | 9999 ft | 304 kts | 279° |
| 2026-05-04 18:14 | 42.62704 | 23.17637 | 9983 ft | 297 kts | 279° |
| 2026-05-04 18:15 | 42.63018 | 23.12212 | 9699 ft | 279 kts | 278° |
| 2026-05-04 18:15 | 42.63312 | 23.07057 | 9065 ft | 267 kts | 278° |
| 2026-05-04 18:15 | 42.63454 | 23.04546 | 8584 ft | 266 kts | 278° |
| 2026-05-04 18:16 | 42.63594 | 23.02067 | 8171 ft | 262 kts | 278° |
| 2026-05-04 18:16 | 42.63732 | 22.99613 | 7791 ft | 257 kts | 277° |
| 2026-05-04 18:16 | 42.63865 | 22.97240 | 7544 ft | 247 kts | 277° |
| 2026-05-04 18:17 | 42.65158 | 22.93454 | 7008 ft | 214 kts | 331° |
| 2026-05-04 18:17 | 42.66508 | 22.92677 | 7053 ft | 209 kts | 349° |
| 2026-05-04 18:17 | 42.69300 | 22.93234 | 6394 ft | 209 kts | 32° |
| 2026-05-04 18:18 | 42.70426 | 22.94483 | 6096 ft | 208 kts | 40° |
| 2026-05-04 18:18 | 42.71514 | 22.95791 | 6002 ft | 210 kts | 40° |
| 2026-05-04 18:18 | 42.72421 | 22.97334 | 5925 ft | 212 kts | 69° |
| 2026-05-04 18:18 | 42.72503 | 22.99319 | 5940 ft | 216 kts | 99° |
| 2026-05-04 18:19 | 42.72002 | 23.03404 | 6059 ft | 220 kts | 96° |
| 2026-05-04 18:19 | 42.71778 | 23.05461 | 6055 ft | 218 kts | 94° |
| 2026-05-04 18:19 | 42.71654 | 23.07521 | 6067 ft | 219 kts | 91° |
| 2026-05-04 18:20 | 42.71559 | 23.09587 | 6021 ft | 219 kts | 91° |
| 2026-05-04 18:20 | 42.71451 | 23.11664 | 5739 ft | 221 kts | 92° |
| 2026-05-04 18:20 | 42.71334 | 23.13746 | 5475 ft | 220 kts | 92° |
| 2026-05-04 18:20 | 42.71213 | 23.15820 | 5209 ft | 220 kts | 92° |
| 2026-05-04 18:21 | 42.71094 | 23.17852 | 4979 ft | 215 kts | 92° |
| 2026-05-04 18:21 | 42.70974 | 23.19859 | 4672 ft | 211 kts | 92° |
| 2026-05-04 18:21 | 42.70855 | 23.21825 | 4398 ft | 206 kts | 92° |
| 2026-05-04 18:21 | 42.70739 | 23.23742 | 4128 ft | 200 kts | 92° |
| 2026-05-04 18:22 | 42.70630 | 23.25547 | 3873 ft | 183 kts | 94° |
| 2026-05-04 18:22 | 42.70531 | 23.27189 | 3614 ft | 167 kts | 95° |
| 2026-05-04 18:22 | 42.70436 | 23.28737 | 3387 ft | 161 kts | 95° |
| 2026-05-04 18:22 | 42.70346 | 23.30240 | 3169 ft | 159 kts | 95° |
| 2026-05-04 18:23 | 42.70256 | 23.31729 | 3001 ft | 158 kts | 95° |
| 2026-05-04 18:23 | 42.70166 | 23.33214 | 2793 ft | 157 kts | 95° |
| 2026-05-04 18:23 | 42.70074 | 23.34693 | 2591 ft | 157 kts | 95° |
| 2026-05-04 18:23 | 42.69988 | 23.36138 | 2353 ft | 150 kts | 95° |
| 2026-05-04 18:24 | 42.69901 | 23.37547 | 2159 ft | 149 kts | 95° |
| 2026-05-04 18:24 | 42.69817 | 23.38945 | 1946 ft | 150 kts | 95° |
| 2026-05-04 18:24 | 42.69730 | 23.40355 | 1764 ft | 147 kts | 95° |
| 2026-05-04 18:24 | 42.69654 | 23.41613 | 1754 ft | 116 kts | 94° |
| 2026-05-04 18:25 | 42.69609 | 23.42345 | 1747 ft | 36 kts | 97° |
| 2026-05-04 18:25 | 42.69543 | 23.42617 | 1752 ft | 23 kts | 121° |
| 2026-05-04 18:25 | 42.69482 | 23.42740 | 1744 ft | 10 kts | 137° |
| 2026-05-04 18:25 | 42.69406 | 23.42701 | 1749 ft | 14 kts | 255° |
| 2026-05-04 18:26 | 42.69410 | 23.42552 | 1747 ft | 17 kts | 274° |
| 2026-05-04 18:26 | 42.69419 | 23.42393 | 1754 ft | 18 kts | 274° |
| 2026-05-04 18:26 | 42.69430 | 23.42219 | 1753 ft | 19 kts | 274° |
| 2026-05-04 18:26 | 42.69441 | 23.42031 | 1753 ft | 18 kts | 275° |
| 2026-05-04 18:27 | 42.69450 | 23.41875 | 1745 ft | 15 kts | 274° |
| 2026-05-04 18:27 | 42.69459 | 23.41729 | 1753 ft | 15 kts | 275° |
| 2026-05-04 18:27 | 42.69467 | 23.41594 | 1752 ft | 15 kts | 275° |
| 2026-05-04 18:27 | 42.69476 | 23.41454 | 1752 ft | 15 kts | 275° |
| 2026-05-04 18:28 | 42.69484 | 23.41310 | 1750 ft | 16 kts | 274° |
| 2026-05-04 18:28 | 42.69448 | 23.41212 | 1752 ft | 11 kts | 194° |
| 2026-05-04 18:28 | 42.69371 | 23.41188 | 1752 ft | 12 kts | 192° |
| 2026-05-04 18:28 | 42.69286 | 23.41163 | 1749 ft | 13 kts | 192° |
| 2026-05-04 18:29 | 42.69195 | 23.41136 | 1752 ft | 13 kts | 192° |
| 2026-05-04 18:29 | 42.69125 | 23.41075 | 1746 ft | 13 kts | 248° |
| 2026-05-04 18:29 | 42.69094 | 23.40948 | 1745 ft | 14 kts | 252° |
| 2026-05-04 18:29 | 42.69065 | 23.40828 | 1752 ft | 13 kts | 253° |
| 2026-05-04 18:30 | 42.69086 | 23.40606 | 1751 ft | 4 kts | 252° |
| 2026-05-04 18:30 | 42.69069 | 23.40591 | 1746 ft | 4 kts | 201° |
| 2026-05-04 18:30 | 42.69040 | 23.40578 | 1751 ft | 4 kts | 196° |
| 2026-05-04 18:31 | 42.69024 | 23.40572 | 1744 ft | 2 kts | 196° |
| 2026-05-04 18:31 | 42.69023 | 23.40572 | 1744 ft | 0 kts | 196° |